메인 페이지
METAR-TAF:

METAR-TAF

공항 :

헬싱키 반타 국제공항

헬싱키, 핀란드

위도: 60-19N, 경도: 024-58E, 고도: 51m

현재 날씨관측

예보는 34분 전, 16:20시(UTC)에 발표되었습니다.
6kt
온도 7°C
습도 76%
기압 1019 hPa
시정 10km 이상
1500m 미만 상공 구름 및 적란운 없음

METAR: EFHK 191620Z 26006KT CAVOK 07/03 Q1019 NOSIG

시각: 19:54 (16:54 UTC)

예보

예보는 2 시간 23분 전, 14:31시(UTC)에 발표되었습니다.
예보 대상 시간: 19일 15시부터 20일 15시까지 (UTC)
9kt
시정 10km 이상
고도 3500ft 상공 구름 조금
확률 30%
19일 22시부터 20일 06시까지 (UTC)
시정: 4000m
박무

TAF: EFHK 191431Z 1915/2015 28009KT 9999 FEW035 PROB30 1922/2006 4000 BR

4,000개 이상의 공항 관측 자료 및 예보 (METAR 및 TAF 보고).

지도상에서 검색 가능한 기상관측소가 노란 점과 빨간 점으로 표시되어 있습니다.

기상관측소 명을 보려면 표시 위로 마우스를 이동하세요.

날씨 관측과 예보를 보려면 클릭하세요.

지도 변경 : 확대하려면 엑스 표시가 있는 녹색 버튼, 축소하려면 빼기 표시가 있는 녹색 버튼, 다음 페이지의 지도를 보려면 녹색 화살표를 클릭하세요.


METAR-TAF: